sensor_id;sensor_type;location;lat;lon;timestamp;P1;durP1;ratioP1;P2;durP2;ratioP2
9270;SDS011;4673;53.458;9.940;2022-09-17T00:00:06;6.20;;;6.00;;
9270;SDS011;4673;53.458;9.940;2022-09-17T00:02:33;5.17;;;5.07;;
9270;SDS011;4673;53.458;9.940;2022-09-17T00:04:58;5.17;;;4.97;;
9270;SDS011;4673;53.458;9.940;2022-09-17T00:07:24;6.47;;;6.27;;
9270;SDS011;4673;53.458;9.940;2022-09-17T00:09:50;5.17;;;4.97;;
9270;SDS011;4673;53.458;9.940;2022-09-17T00:12:15;5.57;;;5.37;;
9270;SDS011;4673;53.458;9.940;2022-09-17T00:14:41;4.37;;;4.27;;
9270;SDS011;4673;53.458;9.940;2022-09-17T00:17:07;4.90;;;4.73;;
9270;SDS011;4673;53.458;9.940;2022-09-17T00:19:32;5.20;;;5.10;;
9270;SDS011;4673;53.458;9.940;2022-09-17T00:21:58;6.10;;;5.90;;
9270;SDS011;4673;53.458;9.940;2022-09-17T00:24:23;5.20;;;5.00;;
9270;SDS011;4673;53.458;9.940;2022-09-17T00:26:49;4.77;;;4.67;;
9270;SDS011;4673;53.458;9.940;2022-09-17T00:29:15;5.03;;;4.87;;
9270;SDS011;4673;53.458;9.940;2022-09-17T00:31:41;4.57;;;4.40;;
9270;SDS011;4673;53.458;9.940;2022-09-17T00:34:07;4.20;;;4.10;;
9270;SDS011;4673;53.458;9.940;2022-09-17T00:36:34;5.03;;;4.93;;
9270;SDS011;4673;53.458;9.940;2022-09-17T00:39:01;5.33;;;5.13;;
9270;SDS011;4673;53.458;9.940;2022-09-17T00:41:28;4.77;;;4.57;;
9270;SDS011;4673;53.458;9.940;2022-09-17T00:43:59;5.20;;;5.00;;
9270;SDS011;4673;53.458;9.940;2022-09-17T00:46:46;5.33;;;5.13;;
9270;SDS011;4673;53.458;9.940;2022-09-17T00:49:14;4.97;;;4.77;;
9270;SDS011;4673;53.458;9.940;2022-09-17T00:51:58;4.40;;;4.30;;
9270;SDS011;4673;53.458;9.940;2022-09-17T00:54:28;5.07;;;4.90;;
9270;SDS011;4673;53.458;9.940;2022-09-17T00:56:55;4.87;;;4.70;;
9270;SDS011;4673;53.458;9.940;2022-09-17T00:59:21;4.43;;;4.33;;
9270;SDS011;4673;53.458;9.940;2022-09-17T01:01:48;4.47;;;4.37;;
9270;SDS011;4673;53.458;9.940;2022-09-17T01:04:18;4.17;;;4.00;;
9270;SDS011;4673;53.458;9.940;2022-09-17T01:06:49;4.70;;;4.50;;
9270;SDS011;4673;53.458;9.940;2022-09-17T01:09:42;4.43;;;4.33;;
9270;SDS011;4673;53.458;9.940;2022-09-17T01:15:09;4.50;;;4.40;;
9270;SDS011;4673;53.458;9.940;2022-09-17T01:37:18;3.63;;;3.53;;
9270;SDS011;4673;53.458;9.940;2022-09-17T01:40:10;3.83;;;3.73;;
9270;SDS011;4673;53.458;9.940;2022-09-17T01:45:21;4.33;;;4.23;;
9270;SDS011;4673;53.458;9.940;2022-09-17T01:48:14;3.27;;;3.17;;
9270;SDS011;4673;53.458;9.940;2022-09-17T01:50:47;4.27;;;4.17;;
9270;SDS011;4673;53.458;9.940;2022-09-17T01:53:23;4.33;;;4.13;;
9270;SDS011;4673;53.458;9.940;2022-09-17T01:55:54;3.43;;;3.33;;
9270;SDS011;4673;53.458;9.940;2022-09-17T01:58:26;4.93;;;4.83;;
9270;SDS011;4673;53.458;9.940;2022-09-17T02:01:02;3.27;;;3.17;;
9270;SDS011;4673;53.458;9.940;2022-09-17T02:03:32;3.20;;;3.10;;
9270;SDS011;4673;53.458;9.940;2022-09-17T02:06:15;3.80;;;3.70;;
9270;SDS011;4673;53.458;9.940;2022-09-17T02:11:13;3.73;;;3.63;;
9270;SDS011;4673;53.458;9.940;2022-09-17T02:16:30;3.10;;;3.00;;
9270;SDS011;4673;53.458;9.940;2022-09-17T02:24:11;4.30;;;4.20;;
9270;SDS011;4673;53.458;9.940;2022-09-17T02:26:52;4.07;;;3.97;;
9270;SDS011;4673;53.458;9.940;2022-09-17T02:29:44;3.17;;;3.17;;
9270;SDS011;4673;53.458;9.940;2022-09-17T02:32:09;3.70;;;3.60;;
9270;SDS011;4673;53.458;9.940;2022-09-17T02:34:36;3.80;;;3.70;;
9270;SDS011;4673;53.458;9.940;2022-09-17T02:37:02;4.17;;;4.07;;
9270;SDS011;4673;53.458;9.940;2022-09-17T02:39:29;3.90;;;3.80;;
9270;SDS011;4673;53.458;9.940;2022-09-17T02:44:38;3.90;;;3.80;;
9270;SDS011;4673;53.458;9.940;2022-09-17T02:50:17;3.50;;;3.40;;
9270;SDS011;4673;53.458;9.940;2022-09-17T02:55:56;2.73;;;2.63;;
9270;SDS011;4673;53.458;9.940;2022-09-17T02:58:45;3.23;;;3.13;;
9270;SDS011;4673;53.458;9.940;2022-09-17T03:01:37;3.63;;;3.53;;
9270;SDS011;4673;53.458;9.940;2022-09-17T03:04:09;2.80;;;2.80;;
9270;SDS011;4673;53.458;9.940;2022-09-17T03:06:40;3.47;;;3.37;;
9270;SDS011;4673;53.458;9.940;2022-09-17T03:09:07;2.73;;;2.73;;
9270;SDS011;4673;53.458;9.940;2022-09-17T03:11:33;3.60;;;3.50;;
9270;SDS011;4673;53.458;9.940;2022-09-17T03:13:58;4.03;;;3.93;;
9270;SDS011;4673;53.458;9.940;2022-09-17T03:16:24;2.27;;;2.27;;
9270;SDS011;4673;53.458;9.940;2022-09-17T03:18:49;4.67;;;4.57;;
9270;SDS011;4673;53.458;9.940;2022-09-17T03:21:15;3.43;;;3.33;;
9270;SDS011;4673;53.458;9.940;2022-09-17T03:23:41;3.07;;;2.97;;
9270;SDS011;4673;53.458;9.940;2022-09-17T03:26:06;4.00;;;3.90;;
9270;SDS011;4673;53.458;9.940;2022-09-17T03:28:32;3.13;;;3.07;;
9270;SDS011;4673;53.458;9.940;2022-09-17T03:30:58;3.17;;;3.07;;
9270;SDS011;4673;53.458;9.940;2022-09-17T03:33:23;2.70;;;2.70;;
9270;SDS011;4673;53.458;9.940;2022-09-17T03:35:49;3.50;;;3.50;;
9270;SDS011;4673;53.458;9.940;2022-09-17T03:38:15;3.90;;;3.80;;
9270;SDS011;4673;53.458;9.940;2022-09-17T03:40:41;2.40;;;2.40;;
9270;SDS011;4673;53.458;9.940;2022-09-17T03:43:07;3.73;;;3.73;;
9270;SDS011;4673;53.458;9.940;2022-09-17T03:45:32;3.00;;;2.90;;
9270;SDS011;4673;53.458;9.940;2022-09-17T03:47:58;3.17;;;3.10;;
9270;SDS011;4673;53.458;9.940;2022-09-17T03:50:23;4.17;;;4.07;;
9270;SDS011;4673;53.458;9.940;2022-09-17T03:52:49;2.70;;;2.60;;
9270;SDS011;4673;53.458;9.940;2022-09-17T03:55:14;3.00;;;3.00;;
9270;SDS011;4673;53.458;9.940;2022-09-17T03:57:41;2.90;;;2.90;;
9270;SDS011;4673;53.458;9.940;2022-09-17T04:00:07;1.97;;;1.97;;
9270;SDS011;4673;53.458;9.940;2022-09-17T04:02:33;2.37;;;2.37;;
9270;SDS011;4673;53.458;9.940;2022-09-17T04:04:59;2.83;;;2.77;;
9270;SDS011;4673;53.458;9.940;2022-09-17T04:07:25;2.10;;;2.10;;
9270;SDS011;4673;53.458;9.940;2022-09-17T04:09:51;2.93;;;2.83;;
9270;SDS011;4673;53.458;9.940;2022-09-17T04:12:16;2.40;;;2.40;;
9270;SDS011;4673;53.458;9.940;2022-09-17T04:14:42;2.63;;;2.60;;
9270;SDS011;4673;53.458;9.940;2022-09-17T04:17:07;2.50;;;2.50;;
9270;SDS011;4673;53.458;9.940;2022-09-17T04:19:33;2.43;;;2.43;;
9270;SDS011;4673;53.458;9.940;2022-09-17T04:21:59;3.03;;;2.93;;
9270;SDS011;4673;53.458;9.940;2022-09-17T04:24:24;2.40;;;2.40;;
9270;SDS011;4673;53.458;9.940;2022-09-17T04:26:50;4.13;;;4.03;;
9270;SDS011;4673;53.458;9.940;2022-09-17T04:29:15;3.03;;;3.03;;
9270;SDS011;4673;53.458;9.940;2022-09-17T04:31:41;2.83;;;2.80;;
9270;SDS011;4673;53.458;9.940;2022-09-17T04:34:06;2.70;;;2.70;;
9270;SDS011;4673;53.458;9.940;2022-09-17T04:36:32;2.40;;;2.40;;
9270;SDS011;4673;53.458;9.940;2022-09-17T04:38:57;2.63;;;2.53;;
9270;SDS011;4673;53.458;9.940;2022-09-17T04:41:23;2.77;;;2.67;;
9270;SDS011;4673;53.458;9.940;2022-09-17T04:43:49;3.03;;;2.93;;
9270;SDS011;4673;53.458;9.940;2022-09-17T04:46:14;2.10;;;2.10;;
9270;SDS011;4673;53.458;9.940;2022-09-17T04:48:40;2.77;;;2.70;;
9270;SDS011;4673;53.458;9.940;2022-09-17T04:51:06;3.27;;;3.20;;
9270;SDS011;4673;53.458;9.940;2022-09-17T04:53:32;2.90;;;2.80;;
9270;SDS011;4673;53.458;9.940;2022-09-17T04:55:57;3.53;;;3.43;;
9270;SDS011;4673;53.458;9.940;2022-09-17T04:58:23;2.37;;;2.37;;
9270;SDS011;4673;53.458;9.940;2022-09-17T05:00:49;2.70;;;2.60;;
9270;SDS011;4673;53.458;9.940;2022-09-17T05:03:14;2.43;;;2.43;;
9270;SDS011;4673;53.458;9.940;2022-09-17T05:05:40;2.87;;;2.77;;
9270;SDS011;4673;53.458;9.940;2022-09-17T05:08:05;2.40;;;2.40;;
9270;SDS011;4673;53.458;9.940;2022-09-17T05:10:32;2.40;;;2.30;;
9270;SDS011;4673;53.458;9.940;2022-09-17T05:12:58;2.57;;;2.57;;
9270;SDS011;4673;53.458;9.940;2022-09-17T05:15:24;2.40;;;2.40;;
9270;SDS011;4673;53.458;9.940;2022-09-17T05:17:50;2.03;;;2.03;;
9270;SDS011;4673;53.458;9.940;2022-09-17T05:20:16;3.13;;;3.07;;
9270;SDS011;4673;53.458;9.940;2022-09-17T05:22:46;3.43;;;3.33;;
9270;SDS011;4673;53.458;9.940;2022-09-17T05:25:14;2.23;;;2.23;;
9270;SDS011;4673;53.458;9.940;2022-09-17T05:27:40;2.67;;;2.63;;
9270;SDS011;4673;53.458;9.940;2022-09-17T05:30:08;2.97;;;2.87;;
9270;SDS011;4673;53.458;9.940;2022-09-17T05:32:35;2.00;;;2.00;;
9270;SDS011;4673;53.458;9.940;2022-09-17T05:35:01;2.37;;;2.27;;
9270;SDS011;4673;53.458;9.940;2022-09-17T05:37:30;2.47;;;2.47;;
9270;SDS011;4673;53.458;9.940;2022-09-17T05:39:56;2.30;;;2.30;;
9270;SDS011;4673;53.458;9.940;2022-09-17T05:42:21;2.93;;;2.83;;
9270;SDS011;4673;53.458;9.940;2022-09-17T05:44:47;2.63;;;2.63;;
9270;SDS011;4673;53.458;9.940;2022-09-17T05:47:13;3.07;;;3.03;;
9270;SDS011;4673;53.458;9.940;2022-09-17T05:49:38;2.50;;;2.40;;
9270;SDS011;4673;53.458;9.940;2022-09-17T05:52:04;2.17;;;2.17;;
9270;SDS011;4673;53.458;9.940;2022-09-17T05:54:30;2.60;;;2.60;;
9270;SDS011;4673;53.458;9.940;2022-09-17T05:56:55;3.67;;;3.57;;
9270;SDS011;4673;53.458;9.940;2022-09-17T05:59:21;2.93;;;2.93;;
9270;SDS011;4673;53.458;9.940;2022-09-17T06:01:47;3.43;;;3.37;;
9270;SDS011;4673;53.458;9.940;2022-09-17T06:04:13;3.83;;;3.73;;
9270;SDS011;4673;53.458;9.940;2022-09-17T06:06:38;3.30;;;3.20;;
9270;SDS011;4673;53.458;9.940;2022-09-17T06:09:05;2.90;;;2.90;;
9270;SDS011;4673;53.458;9.940;2022-09-17T06:11:32;2.93;;;2.83;;
9270;SDS011;4673;53.458;9.940;2022-09-17T06:13:58;2.43;;;2.43;;
9270;SDS011;4673;53.458;9.940;2022-09-17T06:16:24;2.77;;;2.67;;
9270;SDS011;4673;53.458;9.940;2022-09-17T06:18:50;2.37;;;2.37;;
9270;SDS011;4673;53.458;9.940;2022-09-17T06:21:19;2.73;;;2.70;;
9270;SDS011;4673;53.458;9.940;2022-09-17T06:23:48;3.43;;;3.33;;
9270;SDS011;4673;53.458;9.940;2022-09-17T06:26:14;2.30;;;2.20;;
9270;SDS011;4673;53.458;9.940;2022-09-17T06:28:41;2.13;;;2.13;;
9270;SDS011;4673;53.458;9.940;2022-09-17T06:31:07;3.47;;;3.37;;
9270;SDS011;4673;53.458;9.940;2022-09-17T06:33:34;2.83;;;2.83;;
9270;SDS011;4673;53.458;9.940;2022-09-17T06:36:05;3.30;;;3.30;;
9270;SDS011;4673;53.458;9.940;2022-09-17T06:38:34;2.73;;;2.73;;
9270;SDS011;4673;53.458;9.940;2022-09-17T06:41:00;2.67;;;2.57;;
9270;SDS011;4673;53.458;9.940;2022-09-17T06:43:26;2.00;;;1.90;;
9270;SDS011;4673;53.458;9.940;2022-09-17T06:45:52;2.77;;;2.77;;
9270;SDS011;4673;53.458;9.940;2022-09-17T06:48:29;2.80;;;2.70;;
9270;SDS011;4673;53.458;9.940;2022-09-17T06:51:02;3.10;;;3.00;;
9270;SDS011;4673;53.458;9.940;2022-09-17T06:53:30;4.20;;;4.10;;
9270;SDS011;4673;53.458;9.940;2022-09-17T06:55:57;2.53;;;2.47;;
9270;SDS011;4673;53.458;9.940;2022-09-17T06:58:24;3.30;;;3.27;;
9270;SDS011;4673;53.458;9.940;2022-09-17T07:00:49;2.07;;;2.07;;
9270;SDS011;4673;53.458;9.940;2022-09-17T07:03:15;2.90;;;2.90;;
9270;SDS011;4673;53.458;9.940;2022-09-17T07:05:42;2.13;;;2.13;;
9270;SDS011;4673;53.458;9.940;2022-09-17T07:08:08;2.47;;;2.47;;
9270;SDS011;4673;53.458;9.940;2022-09-17T07:10:35;2.73;;;2.73;;
9270;SDS011;4673;53.458;9.940;2022-09-17T07:13:01;2.83;;;2.83;;
9270;SDS011;4673;53.458;9.940;2022-09-17T07:15:27;2.83;;;2.83;;
9270;SDS011;4673;53.458;9.940;2022-09-17T07:17:52;3.47;;;3.40;;
9270;SDS011;4673;53.458;9.940;2022-09-17T07:20:18;2.77;;;2.77;;
9270;SDS011;4673;53.458;9.940;2022-09-17T07:22:44;3.00;;;3.00;;
9270;SDS011;4673;53.458;9.940;2022-09-17T07:25:09;2.97;;;2.93;;
9270;SDS011;4673;53.458;9.940;2022-09-17T07:27:36;2.97;;;2.87;;
9270;SDS011;4673;53.458;9.940;2022-09-17T07:30:02;2.40;;;2.40;;
9270;SDS011;4673;53.458;9.940;2022-09-17T07:32:29;2.73;;;2.73;;
9270;SDS011;4673;53.458;9.940;2022-09-17T07:34:55;2.93;;;2.83;;
9270;SDS011;4673;53.458;9.940;2022-09-17T07:37:21;3.10;;;3.10;;
9270;SDS011;4673;53.458;9.940;2022-09-17T07:39:46;2.97;;;2.97;;
9270;SDS011;4673;53.458;9.940;2022-09-17T07:42:12;3.10;;;3.10;;
9270;SDS011;4673;53.458;9.940;2022-09-17T07:44:38;4.40;;;4.40;;
9270;SDS011;4673;53.458;9.940;2022-09-17T07:47:03;1.70;;;1.70;;
9270;SDS011;4673;53.458;9.940;2022-09-17T07:49:29;2.53;;;2.53;;
9270;SDS011;4673;53.458;9.940;2022-09-17T07:51:55;2.60;;;2.60;;
9270;SDS011;4673;53.458;9.940;2022-09-17T07:54:21;2.30;;;2.30;;
9270;SDS011;4673;53.458;9.940;2022-09-17T07:56:47;3.33;;;3.23;;
9270;SDS011;4673;53.458;9.940;2022-09-17T07:59:13;1.90;;;1.90;;
9270;SDS011;4673;53.458;9.940;2022-09-17T08:01:38;2.60;;;2.60;;
9270;SDS011;4673;53.458;9.940;2022-09-17T08:04:04;1.93;;;1.93;;
9270;SDS011;4673;53.458;9.940;2022-09-17T08:06:30;2.23;;;2.23;;
9270;SDS011;4673;53.458;9.940;2022-09-17T08:08:59;2.50;;;2.50;;
9270;SDS011;4673;53.458;9.940;2022-09-17T08:11:26;2.67;;;2.67;;
9270;SDS011;4673;53.458;9.940;2022-09-17T08:13:53;2.87;;;2.87;;
9270;SDS011;4673;53.458;9.940;2022-09-17T08:16:19;2.50;;;2.50;;
9270;SDS011;4673;53.458;9.940;2022-09-17T08:18:46;1.90;;;1.90;;
9270;SDS011;4673;53.458;9.940;2022-09-17T08:21:16;3.30;;;3.20;;
9270;SDS011;4673;53.458;9.940;2022-09-17T08:23:43;2.67;;;2.67;;
9270;SDS011;4673;53.458;9.940;2022-09-17T08:26:13;1.83;;;1.83;;
9270;SDS011;4673;53.458;9.940;2022-09-17T08:28:43;2.23;;;2.23;;
9270;SDS011;4673;53.458;9.940;2022-09-17T08:31:10;1.70;;;1.70;;
9270;SDS011;4673;53.458;9.940;2022-09-17T08:33:36;2.17;;;2.17;;
9270;SDS011;4673;53.458;9.940;2022-09-17T08:36:04;2.17;;;2.17;;
9270;SDS011;4673;53.458;9.940;2022-09-17T08:38:31;2.07;;;2.07;;
9270;SDS011;4673;53.458;9.940;2022-09-17T08:44:16;2.60;;;2.60;;
9270;SDS011;4673;53.458;9.940;2022-09-17T08:46:31;1.50;;;1.50;;
9270;SDS011;4673;53.458;9.940;2022-09-17T08:49:06;1.53;;;1.53;;
9270;SDS011;4673;53.458;9.940;2022-09-17T09:03:31;2.57;;;2.57;;
9270;SDS011;4673;53.458;9.940;2022-09-17T09:06:08;1.67;;;1.67;;
9270;SDS011;4673;53.458;9.940;2022-09-17T09:08:41;2.13;;;2.13;;
9270;SDS011;4673;53.458;9.940;2022-09-17T09:11:21;1.90;;;1.90;;
9270;SDS011;4673;53.458;9.940;2022-09-17T09:13:52;1.20;;;1.20;;
9270;SDS011;4673;53.458;9.940;2022-09-17T09:16:24;2.10;;;2.10;;
9270;SDS011;4673;53.458;9.940;2022-09-17T09:18:54;1.20;;;1.20;;
9270;SDS011;4673;53.458;9.940;2022-09-17T09:21:27;0.90;;;0.90;;
9270;SDS011;4673;53.458;9.940;2022-09-17T09:26:50;1.03;;;1.03;;
9270;SDS011;4673;53.458;9.940;2022-09-17T09:34:40;1.33;;;1.33;;
9270;SDS011;4673;53.458;9.940;2022-09-17T09:37:11;1.87;;;1.87;;
9270;SDS011;4673;53.458;9.940;2022-09-17T09:40:03;0.70;;;0.70;;
9270;SDS011;4673;53.458;9.940;2022-09-17T09:42:42;0.80;;;0.80;;
9270;SDS011;4673;53.458;9.940;2022-09-17T09:48:22;0.50;;;0.50;;
9270;SDS011;4673;53.458;9.940;2022-09-17T09:53:35;0.60;;;0.60;;
9270;SDS011;4673;53.458;9.940;2022-09-17T09:56:46;0.83;;;0.83;;
9270;SDS011;4673;53.458;9.940;2022-09-17T09:59:27;1.23;;;1.23;;
9270;SDS011;4673;53.458;9.940;2022-09-17T10:01:53;0.77;;;0.77;;
9270;SDS011;4673;53.458;9.940;2022-09-17T10:04:20;0.63;;;0.63;;
9270;SDS011;4673;53.458;9.940;2022-09-17T10:06:48;0.83;;;0.83;;
9270;SDS011;4673;53.458;9.940;2022-09-17T10:09:17;0.93;;;0.93;;
9270;SDS011;4673;53.458;9.940;2022-09-17T10:11:58;0.60;;;0.60;;
9270;SDS011;4673;53.458;9.940;2022-09-17T10:14:33;1.00;;;1.00;;
9270;SDS011;4673;53.458;9.940;2022-09-17T10:17:14;0.83;;;0.83;;
9270;SDS011;4673;53.458;9.940;2022-09-17T10:22:42;0.73;;;0.73;;
9270;SDS011;4673;53.458;9.940;2022-09-17T10:25:30;0.90;;;0.90;;
9270;SDS011;4673;53.458;9.940;2022-09-17T10:27:59;0.90;;;0.90;;
9270;SDS011;4673;53.458;9.940;2022-09-17T10:30:29;0.90;;;0.90;;
9270;SDS011;4673;53.458;9.940;2022-09-17T10:33:14;0.60;;;0.60;;
9270;SDS011;4673;53.458;9.940;2022-09-17T10:35:53;1.10;;;1.10;;
9270;SDS011;4673;53.458;9.940;2022-09-17T10:38:26;1.00;;;1.00;;
9270;SDS011;4673;53.458;9.940;2022-09-17T10:43:43;1.07;;;1.07;;
9270;SDS011;4673;53.458;9.940;2022-09-17T10:46:19;0.87;;;0.87;;
9270;SDS011;4673;53.458;9.940;2022-09-17T10:51:36;0.90;;;0.90;;
9270;SDS011;4673;53.458;9.940;2022-09-17T10:56:48;1.20;;;1.20;;
9270;SDS011;4673;53.458;9.940;2022-09-17T11:10:34;1.02;;;1.02;;
9270;SDS011;4673;53.458;9.940;2022-09-17T11:13:23;1.45;;;1.45;;
9270;SDS011;4673;53.458;9.940;2022-09-17T11:21:20;1.23;;;1.23;;
9270;SDS011;4673;53.458;9.940;2022-09-17T11:24:17;1.20;;;1.20;;
9270;SDS011;4673;53.458;9.940;2022-09-17T11:30:15;1.00;;;1.00;;
9270;SDS011;4673;53.458;9.940;2022-09-17T11:38:08;1.43;;;1.43;;
9270;SDS011;4673;53.458;9.940;2022-09-17T11:41:06;1.03;;;1.03;;
9270;SDS011;4673;53.458;9.940;2022-09-17T11:43:33;1.13;;;1.13;;
9270;SDS011;4673;53.458;9.940;2022-09-17T11:46:12;1.77;;;1.77;;
9270;SDS011;4673;53.458;9.940;2022-09-17T11:51:31;1.15;;;1.15;;
9270;SDS011;4673;53.458;9.940;2022-09-17T11:56:46;1.37;;;1.37;;
9270;SDS011;4673;53.458;9.940;2022-09-17T12:02:29;1.45;;;1.45;;
9270;SDS011;4673;53.458;9.940;2022-09-17T12:05:24;1.33;;;1.33;;
9270;SDS011;4673;53.458;9.940;2022-09-17T12:07:58;1.58;;;1.58;;
9270;SDS011;4673;53.458;9.940;2022-09-17T12:10:51;1.40;;;1.40;;
9270;SDS011;4673;53.458;9.940;2022-09-17T12:13:44;1.87;;;1.87;;
9270;SDS011;4673;53.458;9.940;2022-09-17T12:18:45;1.75;;;1.75;;
9270;SDS011;4673;53.458;9.940;2022-09-17T12:24:22;1.92;;;1.92;;
9270;SDS011;4673;53.458;9.940;2022-09-17T12:29:42;1.05;;;1.05;;
9270;SDS011;4673;53.458;9.940;2022-09-17T12:41:26;1.67;;;1.67;;
9270;SDS011;4673;53.458;9.940;2022-09-17T12:49:49;1.77;;;1.77;;
9270;SDS011;4673;53.458;9.940;2022-09-17T12:52:29;1.52;;;1.52;;
9270;SDS011;4673;53.458;9.940;2022-09-17T13:01:13;1.52;;;1.52;;
9270;SDS011;4673;53.458;9.940;2022-09-17T13:03:46;1.67;;;1.67;;
9270;SDS011;4673;53.458;9.940;2022-09-17T13:06:27;1.20;;;1.20;;
9270;SDS011;4673;53.458;9.940;2022-09-17T13:12:31;1.92;;;1.92;;
9270;SDS011;4673;53.458;9.940;2022-09-17T13:18:10;1.70;;;1.70;;
9270;SDS011;4673;53.458;9.940;2022-09-17T13:20:39;1.50;;;1.50;;
9270;SDS011;4673;53.458;9.940;2022-09-17T13:23:27;1.20;;;1.20;;
9270;SDS011;4673;53.458;9.940;2022-09-17T13:25:59;0.93;;;0.93;;
9270;SDS011;4673;53.458;9.940;2022-09-17T13:29:02;1.10;;;1.10;;
9270;SDS011;4673;53.458;9.940;2022-09-17T13:31:22;0.85;;;0.85;;
9270;SDS011;4673;53.458;9.940;2022-09-17T13:34:41;1.05;;;1.05;;
9270;SDS011;4673;53.458;9.940;2022-09-17T13:37:03;1.13;;;1.13;;
9270;SDS011;4673;53.458;9.940;2022-09-17T13:39:48;1.33;;;1.33;;
9270;SDS011;4673;53.458;9.940;2022-09-17T13:45:07;1.10;;;1.10;;
9270;SDS011;4673;53.458;9.940;2022-09-17T13:47:37;1.00;;;1.00;;
9270;SDS011;4673;53.458;9.940;2022-09-17T13:53:04;1.40;;;1.40;;
9270;SDS011;4673;53.458;9.940;2022-09-17T13:55:46;1.10;;;1.10;;
9270;SDS011;4673;53.458;9.940;2022-09-17T14:05:55;1.53;;;1.53;;
9270;SDS011;4673;53.458;9.940;2022-09-17T14:16:49;1.30;;;1.30;;
9270;SDS011;4673;53.458;9.940;2022-09-17T14:35:01;1.13;;;1.13;;
9270;SDS011;4673;53.458;9.940;2022-09-17T14:37:36;1.35;;;1.35;;
9270;SDS011;4673;53.458;9.940;2022-09-17T14:40:07;1.13;;;1.13;;
9270;SDS011;4673;53.458;9.940;2022-09-17T14:42:34;1.08;;;1.08;;
9270;SDS011;4673;53.458;9.940;2022-09-17T14:48:15;0.95;;;0.95;;
9270;SDS011;4673;53.458;9.940;2022-09-17T14:53:42;0.80;;;0.80;;
9270;SDS011;4673;53.458;9.940;2022-09-17T14:56:08;0.60;;;0.60;;
9270;SDS011;4673;53.458;9.940;2022-09-17T14:58:39;0.93;;;0.93;;
9270;SDS011;4673;53.458;9.940;2022-09-17T15:01:44;0.90;;;0.90;;
9270;SDS011;4673;53.458;9.940;2022-09-17T15:06:37;0.90;;;0.90;;
9270;SDS011;4673;53.458;9.940;2022-09-17T15:09:03;0.87;;;0.87;;
9270;SDS011;4673;53.458;9.940;2022-09-17T15:11:29;1.10;;;1.10;;
9270;SDS011;4673;53.458;9.940;2022-09-17T15:13:58;0.80;;;0.80;;
9270;SDS011;4673;53.458;9.940;2022-09-17T15:16:25;0.90;;;0.90;;
9270;SDS011;4673;53.458;9.940;2022-09-17T15:18:52;1.17;;;1.17;;
9270;SDS011;4673;53.458;9.940;2022-09-17T15:21:38;0.83;;;0.83;;
9270;SDS011;4673;53.458;9.940;2022-09-17T15:26:39;1.50;;;1.50;;
9270;SDS011;4673;53.458;9.940;2022-09-17T15:29:06;0.93;;;0.93;;
9270;SDS011;4673;53.458;9.940;2022-09-17T15:31:36;1.17;;;1.17;;
9270;SDS011;4673;53.458;9.940;2022-09-17T15:34:01;1.13;;;1.13;;
9270;SDS011;4673;53.458;9.940;2022-09-17T15:36:27;1.23;;;1.23;;
9270;SDS011;4673;53.458;9.940;2022-09-17T15:38:56;1.17;;;1.17;;
9270;SDS011;4673;53.458;9.940;2022-09-17T15:41:24;1.47;;;1.47;;
9270;SDS011;4673;53.458;9.940;2022-09-17T15:44:39;1.40;;;1.40;;
9270;SDS011;4673;53.458;9.940;2022-09-17T15:46:44;1.27;;;1.27;;
9270;SDS011;4673;53.458;9.940;2022-09-17T15:52:17;2.03;;;2.03;;
9270;SDS011;4673;53.458;9.940;2022-09-17T15:54:55;1.50;;;1.50;;
9270;SDS011;4673;53.458;9.940;2022-09-17T15:57:22;1.50;;;1.50;;
9270;SDS011;4673;53.458;9.940;2022-09-17T15:59:48;2.03;;;2.03;;
9270;SDS011;4673;53.458;9.940;2022-09-17T16:07:37;2.30;;;2.30;;
9270;SDS011;4673;53.458;9.940;2022-09-17T16:10:04;1.87;;;1.87;;
9270;SDS011;4673;53.458;9.940;2022-09-17T16:12:31;1.53;;;1.53;;
9270;SDS011;4673;53.458;9.940;2022-09-17T16:14:57;2.23;;;2.23;;
9270;SDS011;4673;53.458;9.940;2022-09-17T16:17:32;1.30;;;1.30;;
9270;SDS011;4673;53.458;9.940;2022-09-17T16:20:07;1.93;;;1.93;;
9270;SDS011;4673;53.458;9.940;2022-09-17T16:22:44;1.67;;;1.67;;
9270;SDS011;4673;53.458;9.940;2022-09-17T16:25:13;1.53;;;1.53;;
9270;SDS011;4673;53.458;9.940;2022-09-17T16:30:11;1.70;;;1.70;;
9270;SDS011;4673;53.458;9.940;2022-09-17T16:32:39;1.30;;;1.30;;
9270;SDS011;4673;53.458;9.940;2022-09-17T16:35:05;1.17;;;1.17;;
9270;SDS011;4673;53.458;9.940;2022-09-17T16:37:31;1.57;;;1.57;;
9270;SDS011;4673;53.458;9.940;2022-09-17T16:39:56;1.70;;;1.70;;
9270;SDS011;4673;53.458;9.940;2022-09-17T16:42:22;1.80;;;1.80;;
9270;SDS011;4673;53.458;9.940;2022-09-17T16:44:48;1.43;;;1.43;;
9270;SDS011;4673;53.458;9.940;2022-09-17T16:47:13;1.53;;;1.53;;
9270;SDS011;4673;53.458;9.940;2022-09-17T16:49:39;1.53;;;1.53;;
9270;SDS011;4673;53.458;9.940;2022-09-17T16:52:04;1.40;;;1.40;;
9270;SDS011;4673;53.458;9.940;2022-09-17T16:54:30;1.83;;;1.83;;
9270;SDS011;4673;53.458;9.940;2022-09-17T16:56:56;1.73;;;1.73;;
9270;SDS011;4673;53.458;9.940;2022-09-17T16:59:21;1.90;;;1.90;;
9270;SDS011;4673;53.458;9.940;2022-09-17T17:01:47;1.83;;;1.83;;
9270;SDS011;4673;53.458;9.940;2022-09-17T17:04:14;1.70;;;1.70;;
9270;SDS011;4673;53.458;9.940;2022-09-17T17:06:40;2.17;;;2.17;;
9270;SDS011;4673;53.458;9.940;2022-09-17T17:09:06;1.50;;;1.50;;
9270;SDS011;4673;53.458;9.940;2022-09-17T17:11:31;1.87;;;1.87;;
9270;SDS011;4673;53.458;9.940;2022-09-17T17:13:57;1.93;;;1.93;;
9270;SDS011;4673;53.458;9.940;2022-09-17T17:16:23;2.57;;;2.57;;
9270;SDS011;4673;53.458;9.940;2022-09-17T17:18:49;2.90;;;2.90;;
9270;SDS011;4673;53.458;9.940;2022-09-17T17:21:17;4.37;;;4.37;;
9270;SDS011;4673;53.458;9.940;2022-09-17T17:23:44;2.13;;;2.13;;
9270;SDS011;4673;53.458;9.940;2022-09-17T17:26:11;2.07;;;2.07;;
9270;SDS011;4673;53.458;9.940;2022-09-17T17:28:38;2.17;;;2.17;;
9270;SDS011;4673;53.458;9.940;2022-09-17T17:31:04;2.27;;;2.27;;
9270;SDS011;4673;53.458;9.940;2022-09-17T17:33:29;1.63;;;1.63;;
9270;SDS011;4673;53.458;9.940;2022-09-17T17:35:58;1.50;;;1.50;;
9270;SDS011;4673;53.458;9.940;2022-09-17T17:38:24;1.67;;;1.67;;
9270;SDS011;4673;53.458;9.940;2022-09-17T17:41:00;1.53;;;1.53;;
9270;SDS011;4673;53.458;9.940;2022-09-17T17:43:32;2.47;;;2.47;;
9270;SDS011;4673;53.458;9.940;2022-09-17T17:45:59;1.57;;;1.57;;
9270;SDS011;4673;53.458;9.940;2022-09-17T17:48:25;2.13;;;2.13;;
9270;SDS011;4673;53.458;9.940;2022-09-17T17:50:51;1.57;;;1.57;;
9270;SDS011;4673;53.458;9.940;2022-09-17T17:53:17;1.70;;;1.70;;
9270;SDS011;4673;53.458;9.940;2022-09-17T17:55:42;1.93;;;1.93;;
9270;SDS011;4673;53.458;9.940;2022-09-17T17:58:08;2.40;;;2.40;;
9270;SDS011;4673;53.458;9.940;2022-09-17T18:00:33;1.53;;;1.53;;
9270;SDS011;4673;53.458;9.940;2022-09-17T18:02:59;1.67;;;1.67;;
9270;SDS011;4673;53.458;9.940;2022-09-17T18:05:25;1.00;;;1.00;;
9270;SDS011;4673;53.458;9.940;2022-09-17T18:07:53;1.20;;;1.20;;
9270;SDS011;4673;53.458;9.940;2022-09-17T18:10:18;1.30;;;1.30;;
9270;SDS011;4673;53.458;9.940;2022-09-17T18:12:44;1.80;;;1.80;;
9270;SDS011;4673;53.458;9.940;2022-09-17T18:15:14;1.63;;;1.63;;
9270;SDS011;4673;53.458;9.940;2022-09-17T18:17:41;1.83;;;1.83;;
9270;SDS011;4673;53.458;9.940;2022-09-17T18:20:06;1.20;;;1.20;;
9270;SDS011;4673;53.458;9.940;2022-09-17T18:22:33;1.33;;;1.33;;
9270;SDS011;4673;53.458;9.940;2022-09-17T18:24:59;1.87;;;1.87;;
9270;SDS011;4673;53.458;9.940;2022-09-17T18:27:25;1.60;;;1.60;;
9270;SDS011;4673;53.458;9.940;2022-09-17T18:29:50;1.97;;;1.97;;
9270;SDS011;4673;53.458;9.940;2022-09-17T18:32:16;1.60;;;1.60;;
9270;SDS011;4673;53.458;9.940;2022-09-17T18:34:41;2.13;;;2.13;;
9270;SDS011;4673;53.458;9.940;2022-09-17T18:37:07;2.33;;;2.33;;
9270;SDS011;4673;53.458;9.940;2022-09-17T18:39:32;1.80;;;1.80;;
9270;SDS011;4673;53.458;9.940;2022-09-17T18:41:58;1.80;;;1.80;;
9270;SDS011;4673;53.458;9.940;2022-09-17T18:44:24;1.80;;;1.80;;
9270;SDS011;4673;53.458;9.940;2022-09-17T18:46:49;2.03;;;2.03;;
9270;SDS011;4673;53.458;9.940;2022-09-17T18:49:15;2.77;;;2.77;;
9270;SDS011;4673;53.458;9.940;2022-09-17T18:51:41;2.20;;;2.20;;
9270;SDS011;4673;53.458;9.940;2022-09-17T18:54:08;2.70;;;2.70;;
9270;SDS011;4673;53.458;9.940;2022-09-17T18:56:34;2.33;;;2.33;;
9270;SDS011;4673;53.458;9.940;2022-09-17T18:59:00;3.10;;;3.10;;
9270;SDS011;4673;53.458;9.940;2022-09-17T19:01:27;2.57;;;2.57;;
9270;SDS011;4673;53.458;9.940;2022-09-17T19:03:55;2.60;;;2.60;;